createdAt,value
2018-10-02T00:01:03.287Z,11.43
2018-10-02T00:03:37.741Z,11.47
2018-10-02T00:06:12.455Z,11.57
2018-10-02T00:08:47.012Z,11.47
2018-10-02T00:11:27.166Z,10.50
2018-10-02T00:14:07.148Z,11.07
2018-10-02T00:16:42.229Z,11.17
2018-10-02T00:19:16.881Z,10.93
2018-10-02T00:21:51.489Z,10.60
2018-10-02T00:24:25.856Z,9.23
2018-10-02T00:27:00.463Z,9.47
2018-10-02T00:29:35.281Z,9.90
2018-10-02T00:32:10.147Z,9.00
2018-10-02T00:34:44.799Z,9.13
2018-10-02T00:37:19.560Z,9.13
2018-10-02T00:39:54.181Z,8.63
2018-10-02T00:42:29.075Z,8.50
2018-10-02T00:45:03.834Z,8.90
2018-10-02T00:47:38.550Z,8.23
2018-10-02T00:50:13.059Z,8.83
2018-10-02T00:52:47.572Z,9.03
2018-10-02T00:55:21.989Z,8.73
2018-10-02T00:57:56.659Z,8.70
2018-10-02T01:00:31.375Z,8.30
2018-10-02T01:03:06.602Z,8.20
2018-10-02T01:05:40.971Z,8.87
2018-10-02T01:08:15.795Z,9.07
2018-10-02T01:10:50.171Z,8.77
2018-10-02T01:13:24.859Z,9.00
2018-10-02T01:15:59.832Z,9.40
2018-10-02T01:18:34.555Z,10.70
2018-10-02T01:21:08.883Z,10.47
2018-10-02T01:23:43.907Z,10.03
2018-10-02T01:26:19.184Z,11.00
2018-10-02T01:28:53.682Z,9.93
2018-10-02T01:31:28.459Z,10.40
2018-10-02T01:34:03.131Z,11.00
2018-10-02T01:36:37.567Z,10.57
2018-10-02T01:39:12.136Z,10.40
2018-10-02T01:41:46.935Z,10.53
2018-10-02T01:44:21.534Z,10.97
2018-10-02T01:46:56.079Z,10.70
2018-10-02T01:49:30.740Z,10.90
2018-10-02T01:52:05.348Z,10.50
2018-10-02T01:54:40.240Z,10.23
2018-10-02T01:57:15.177Z,10.70
2018-10-02T01:59:49.909Z,10.37
2018-10-02T02:02:24.788Z,10.37
2018-10-02T02:04:59.137Z,10.03
2018-10-02T02:07:33.420Z,10.93
2018-10-02T02:10:08.048Z,10.23
2018-10-02T02:12:42.559Z,10.73
2018-10-02T02:15:17.787Z,10.33
2018-10-02T02:17:52.255Z,10.30
2018-10-02T02:20:26.952Z,10.37
2018-10-02T02:23:01.435Z,9.87
2018-10-02T02:25:35.827Z,9.90
2018-10-02T02:28:10.650Z,8.70
2018-10-02T02:30:45.193Z,9.20
2018-10-02T02:33:19.751Z,9.00
2018-10-02T02:35:54.060Z,8.90
2018-10-02T02:38:28.459Z,9.13
2018-10-02T02:41:02.822Z,9.17
2018-10-02T02:43:37.244Z,7.30
2018-10-02T02:46:11.759Z,6.93
2018-10-02T02:48:51.841Z,6.47
2018-10-02T02:51:29.361Z,6.20
2018-10-02T02:54:04.416Z,6.33
2018-10-02T02:56:38.920Z,6.70
2018-10-02T02:59:13.623Z,6.50
2018-10-02T03:01:48.667Z,5.70
2018-10-02T03:04:23.487Z,6.17
2018-10-02T03:06:58.031Z,6.10
2018-10-02T03:09:33.116Z,5.53
2018-10-02T03:12:08.399Z,5.70
2018-10-02T03:14:42.944Z,6.13
2018-10-02T03:17:17.483Z,6.50
2018-10-02T03:19:52.507Z,6.60
2018-10-02T03:22:27.191Z,6.90
2018-10-02T03:25:01.626Z,6.43
2018-10-02T03:27:36.335Z,7.33
2018-10-02T03:30:11.159Z,7.67
2018-10-02T03:32:46.119Z,7.83
2018-10-02T03:35:20.667Z,7.53
2018-10-02T03:37:55.180Z,8.73
2018-10-02T03:40:31.916Z,7.90
2018-10-02T03:43:06.759Z,8.50
2018-10-02T03:45:41.804Z,8.90
2018-10-02T03:48:16.312Z,8.60
2018-10-02T03:50:50.660Z,9.70
2018-10-02T03:53:25.141Z,9.00
2018-10-02T03:55:59.830Z,9.40
2018-10-02T03:58:35.037Z,9.17
2018-10-02T04:01:09.403Z,10.33
2018-10-02T04:03:44.336Z,9.97
2018-10-02T04:06:19.510Z,10.50
2018-10-02T04:08:54.232Z,10.40
2018-10-02T04:11:28.643Z,10.70
2018-10-02T04:14:03.770Z,10.63
2018-10-02T04:16:38.653Z,11.30
2018-10-02T04:19:13.963Z,10.67
2018-10-02T04:21:48.687Z,10.83
2018-10-02T04:24:23.339Z,10.87
2018-10-02T04:26:57.872Z,11.93
2018-10-02T04:29:32.495Z,10.87
2018-10-02T04:32:07.147Z,10.67
2018-10-02T04:34:41.639Z,11.07
2018-10-02T04:37:16.319Z,11.47
2018-10-02T04:39:51.079Z,10.80
2018-10-02T04:42:25.588Z,9.93
2018-10-02T04:45:00.380Z,11.00
2018-10-02T04:47:34.717Z,10.73
2018-10-02T04:50:16.123Z,11.00
2018-10-02T04:52:51.247Z,10.80
2018-10-02T04:55:26.012Z,11.30
2018-10-02T04:58:00.759Z,10.90
2018-10-02T05:00:35.599Z,11.23
2018-10-02T05:03:10.400Z,11.13
2018-10-02T05:05:45.247Z,11.63
2018-10-02T05:08:19.679Z,11.80
2018-10-02T05:10:54.468Z,11.93
2018-10-02T05:13:28.903Z,12.27
2018-10-02T05:16:10.976Z,12.10
2018-10-02T05:18:46.139Z,11.27
2018-10-02T05:21:20.816Z,12.33
2018-10-02T05:23:55.189Z,11.57
2018-10-02T05:26:30.390Z,10.57
2018-10-02T05:29:04.821Z,10.87
2018-10-02T05:31:39.671Z,11.17
2018-10-02T05:34:14.299Z,11.37
2018-10-02T05:36:49.073Z,9.73
2018-10-02T05:39:23.754Z,9.80
2018-10-02T05:41:58.156Z,9.40
2018-10-02T05:44:32.488Z,9.30
2018-10-02T05:47:06.878Z,8.70
2018-10-02T05:49:41.440Z,9.63
2018-10-02T05:52:16.196Z,9.57
2018-10-02T05:54:51.008Z,9.90
2018-10-02T05:57:25.839Z,9.93
2018-10-02T06:00:00.147Z,10.30
2018-10-02T06:02:34.545Z,10.20
2018-10-02T06:05:09.666Z,10.33
2018-10-02T06:07:44.104Z,10.17
2018-10-02T06:10:18.989Z,10.17
2018-10-02T06:12:53.263Z,10.33
2018-10-02T06:15:27.768Z,10.80
2018-10-02T06:18:02.629Z,10.40
2018-10-02T06:20:37.560Z,10.97
2018-10-02T06:23:12.400Z,10.00
2018-10-02T06:25:47.276Z,11.13
2018-10-02T06:28:22.067Z,9.97
2018-10-02T06:30:56.816Z,9.80
2018-10-02T06:33:31.539Z,10.70
2018-10-02T06:36:06.215Z,10.40
2018-10-02T06:38:40.724Z,10.90
2018-10-02T06:41:15.563Z,11.10
2018-10-02T06:43:50.064Z,10.70
2018-10-02T06:46:24.825Z,10.50
2018-10-02T06:48:59.277Z,11.17
2018-10-02T06:51:34.120Z,10.63
2018-10-02T06:54:08.960Z,10.37
2018-10-02T06:56:43.662Z,10.67
2018-10-02T06:59:18.404Z,10.97
2018-10-02T07:01:53.523Z,11.47
2018-10-02T07:04:28.176Z,11.27
2018-10-02T07:07:02.824Z,11.00
2018-10-02T07:09:37.604Z,11.03
2018-10-02T07:12:11.932Z,11.37
2018-10-02T07:14:46.821Z,11.30
2018-10-02T07:17:21.669Z,11.63
2018-10-02T07:19:57.136Z,12.40
2018-10-02T07:22:31.891Z,11.40
2018-10-02T07:25:06.960Z,11.70
2018-10-02T07:27:41.652Z,13.10
2018-10-02T07:30:16.707Z,11.40
2018-10-02T07:32:51.403Z,12.53
2018-10-02T07:35:26.281Z,12.23
2018-10-02T07:38:00.767Z,12.67
2018-10-02T07:40:35.454Z,12.57
2018-10-02T07:43:09.984Z,12.37
2018-10-02T07:45:44.504Z,11.97
2018-10-02T07:48:19.601Z,11.43
2018-10-02T07:50:54.288Z,11.17
2018-10-02T07:53:28.939Z,11.17
2018-10-02T07:56:04.141Z,12.07
2018-10-02T07:58:38.712Z,10.90
2018-10-02T08:01:13.137Z,11.27
2018-10-02T08:03:47.470Z,10.50
2018-10-02T08:06:22.573Z,10.73
2018-10-02T08:08:57.811Z,10.60
2018-10-02T08:11:32.599Z,10.40
2018-10-02T08:14:07.807Z,11.10
2018-10-02T08:16:42.744Z,9.93
2018-10-02T08:19:17.612Z,9.97
2018-10-02T08:21:52.477Z,9.40
2018-10-02T08:24:27.015Z,8.80
2018-10-02T08:27:01.402Z,9.77
2018-10-02T08:29:36.493Z,9.23
2018-10-02T08:32:11.835Z,10.10
2018-10-02T08:34:46.756Z,9.97
2018-10-02T08:37:21.420Z,10.27
2018-10-02T08:39:55.867Z,9.87
2018-10-02T08:42:30.288Z,9.00
2018-10-02T08:45:05.458Z,9.00
2018-10-02T08:47:40.253Z,8.97
2018-10-02T08:50:15.002Z,8.73
2018-10-02T08:52:50.452Z,10.10
2018-10-02T08:55:25.075Z,8.10
2018-10-02T08:57:59.931Z,7.93
2018-10-02T09:00:34.604Z,7.33
2018-10-02T09:03:09.715Z,6.33
2018-10-02T09:05:44.410Z,8.30
2018-10-02T09:08:18.766Z,7.17
2018-10-02T09:10:53.476Z,7.23
2018-10-02T09:13:27.932Z,6.93
2018-10-02T09:16:02.961Z,6.40
2018-10-02T09:18:37.946Z,6.60
2018-10-02T09:21:12.595Z,5.87
2018-10-02T09:23:47.438Z,6.20
2018-10-02T09:26:22.486Z,6.17
2018-10-02T09:28:57.360Z,5.93
2018-10-02T09:31:37.301Z,6.10
2018-10-02T09:36:21.059Z,6.63
2018-10-02T09:39:01.116Z,5.50
2018-10-02T09:41:41.100Z,5.00
2018-10-02T09:44:15.414Z,5.40
2018-10-02T09:46:50.032Z,4.40
2018-10-02T09:49:24.421Z,4.23
2018-10-02T09:51:59.485Z,4.20
2018-10-02T09:54:33.901Z,3.60
2018-10-02T09:57:08.576Z,4.00
2018-10-02T09:59:43.439Z,3.73
2018-10-02T10:02:23.373Z,3.87
2018-10-02T10:04:58.492Z,4.27
2018-10-02T10:07:33.019Z,3.97
2018-10-02T10:10:07.981Z,3.90
2018-10-02T10:12:42.444Z,3.97
2018-10-02T10:15:17.039Z,4.43
2018-10-02T10:17:51.525Z,3.57
2018-10-02T10:20:25.908Z,4.00
2018-10-02T10:23:00.489Z,3.53
2018-10-02T10:25:35.337Z,4.20
2018-10-02T10:28:09.940Z,3.67
2018-10-02T10:30:44.811Z,4.50
2018-10-02T10:33:19.584Z,3.83
2018-10-02T10:35:54.457Z,3.97
2018-10-02T10:38:29.843Z,4.07
2018-10-02T10:41:04.671Z,3.50
2018-10-02T10:43:41.000Z,3.80
2018-10-02T10:46:15.373Z,3.50
2018-10-02T10:48:49.802Z,3.33
2018-10-02T10:51:24.369Z,3.00
2018-10-02T10:53:59.037Z,2.87
2018-10-02T10:56:33.993Z,2.70
2018-10-02T10:59:08.617Z,3.33
2018-10-02T11:01:43.212Z,3.10
2018-10-02T11:04:18.008Z,2.97
2018-10-02T11:06:52.716Z,2.67
2018-10-02T11:09:27.392Z,2.90
2018-10-02T11:12:02.180Z,3.00
2018-10-02T11:14:36.728Z,3.13
2018-10-02T11:17:11.219Z,3.00
2018-10-02T11:19:45.584Z,3.20
2018-10-02T11:22:20.209Z,3.03
2018-10-02T11:24:54.913Z,3.60
2018-10-02T11:27:29.684Z,3.07
2018-10-02T11:30:04.755Z,3.40
2018-10-02T11:32:39.490Z,3.10
2018-10-02T11:35:14.105Z,3.13
2018-10-02T11:37:49.402Z,3.30
2018-10-02T11:40:24.089Z,2.83
2018-10-02T11:42:58.928Z,3.10
2018-10-02T11:45:33.388Z,4.53
2018-10-02T11:48:08.232Z,3.50
2018-10-02T11:50:42.912Z,2.90
2018-10-02T11:53:17.589Z,2.90
2018-10-02T11:55:52.554Z,2.80
2018-10-02T11:58:27.360Z,2.60
2018-10-02T12:01:01.869Z,2.80
2018-10-02T12:03:38.801Z,2.60
2018-10-02T12:06:14.055Z,2.80
2018-10-02T12:08:48.412Z,2.70
2018-10-02T12:11:23.322Z,2.97
2018-10-02T12:13:58.335Z,2.80
2018-10-02T12:16:32.997Z,2.70
2018-10-02T12:19:07.389Z,2.80
2018-10-02T12:21:41.815Z,3.10
2018-10-02T12:24:17.124Z,3.00
2018-10-02T12:26:51.510Z,3.20
2018-10-02T12:29:25.966Z,3.60
2018-10-02T12:32:00.397Z,3.63
2018-10-02T12:34:35.243Z,3.13
2018-10-02T12:37:10.205Z,3.23
2018-10-02T12:39:44.907Z,3.20
2018-10-02T12:42:19.644Z,3.33
2018-10-02T12:44:54.027Z,3.23
2018-10-02T12:47:28.910Z,3.20
2018-10-02T12:50:03.877Z,3.10
2018-10-02T12:52:38.435Z,3.30
2018-10-02T12:55:13.123Z,3.20
2018-10-02T12:57:47.660Z,2.97
2018-10-02T13:00:22.285Z,2.90
2018-10-02T13:02:56.902Z,3.10
2018-10-02T13:05:31.430Z,3.20
2018-10-02T13:08:05.902Z,3.63
2018-10-02T13:10:40.816Z,3.30
2018-10-02T13:13:15.451Z,3.37
2018-10-02T13:15:50.054Z,3.57
2018-10-02T13:18:25.771Z,3.20
2018-10-02T13:21:00.264Z,3.50
2018-10-02T13:23:34.870Z,3.30
2018-10-02T13:26:09.558Z,3.53
2018-10-02T13:28:44.054Z,3.67
2018-10-02T13:31:18.449Z,3.30
2018-10-02T13:33:53.349Z,3.67
2018-10-02T13:36:28.130Z,3.60
2018-10-02T13:39:02.541Z,3.30
2018-10-02T13:41:37.978Z,3.60
2018-10-02T13:44:12.564Z,3.57
2018-10-02T13:46:47.356Z,3.50
2018-10-02T13:49:21.884Z,3.30
2018-10-02T13:51:57.272Z,3.20
2018-10-02T13:54:32.026Z,3.57
2018-10-02T13:57:06.576Z,3.60
2018-10-02T13:59:41.620Z,3.77
2018-10-02T14:02:16.064Z,3.63
2018-10-02T14:04:50.481Z,3.40
2018-10-02T14:07:25.492Z,3.37
2018-10-02T14:10:00.176Z,3.67
2018-10-02T14:12:35.465Z,3.30
2018-10-02T14:15:10.137Z,3.50
2018-10-02T14:17:45.002Z,3.17
2018-10-02T14:20:19.632Z,3.27
2018-10-02T14:22:54.148Z,3.77
2018-10-02T14:25:29.200Z,3.23
2018-10-02T14:28:04.039Z,3.27
2018-10-02T14:30:39.116Z,2.90
2018-10-02T14:33:13.448Z,3.00
2018-10-02T14:35:48.207Z,3.30
2018-10-02T14:38:22.731Z,3.10
2018-10-02T14:40:57.428Z,3.20
2018-10-02T14:43:45.126Z,3.43
2018-10-02T14:46:19.629Z,3.07
2018-10-02T14:48:54.556Z,3.30
2018-10-02T14:51:29.033Z,3.07
2018-10-02T14:54:03.580Z,3.30
2018-10-02T14:56:38.089Z,3.77
2018-10-02T14:59:12.537Z,3.37
2018-10-02T15:01:47.240Z,3.80
2018-10-02T15:04:22.090Z,3.60
2018-10-02T15:06:56.833Z,3.57
2018-10-02T15:09:31.324Z,3.60
2018-10-02T15:12:05.872Z,3.30
2018-10-02T15:14:41.762Z,3.83
2018-10-02T15:17:16.281Z,3.70
2018-10-02T15:19:50.624Z,3.50
2018-10-02T15:22:25.274Z,3.70
2018-10-02T15:24:59.618Z,3.60
2018-10-02T15:27:34.311Z,4.30
2018-10-02T15:30:09.422Z,4.00
2018-10-02T15:32:44.076Z,3.80
2018-10-02T15:35:18.616Z,3.87
2018-10-02T15:37:53.502Z,3.73
2018-10-02T15:40:28.589Z,3.73
2018-10-02T15:43:03.954Z,3.67
2018-10-02T15:45:38.500Z,4.43
2018-10-02T15:48:12.945Z,4.30
2018-10-02T15:50:47.471Z,3.93
2018-10-02T15:53:22.081Z,3.70
2018-10-02T15:55:57.228Z,4.13
2018-10-02T15:58:31.675Z,3.70
2018-10-02T16:01:06.448Z,3.70
2018-10-02T16:03:57.409Z,3.40
2018-10-02T16:06:31.863Z,3.90
2018-10-02T16:09:06.713Z,4.10
2018-10-02T16:11:41.565Z,4.20
2018-10-02T16:14:16.569Z,4.30
2018-10-02T16:16:51.391Z,4.23
2018-10-02T16:19:25.868Z,4.20
2018-10-02T16:22:00.346Z,4.07
2018-10-02T16:24:35.350Z,3.97
2018-10-02T16:27:10.377Z,3.70
2018-10-02T16:29:44.853Z,4.00
2018-10-02T16:32:19.487Z,3.70
2018-10-02T16:34:54.261Z,3.93
2018-10-02T16:37:28.948Z,4.30
2018-10-02T16:40:07.425Z,4.30
2018-10-02T16:42:42.521Z,4.63
2018-10-02T16:45:17.381Z,5.00
2018-10-02T16:47:55.265Z,4.97
2018-10-02T16:50:30.720Z,5.23
2018-10-02T16:53:05.905Z,5.10
2018-10-02T16:55:40.520Z,4.80
2018-10-02T16:58:15.071Z,5.10
2018-10-02T17:00:49.908Z,4.80
2018-10-02T17:03:24.375Z,5.07
2018-10-02T17:05:58.684Z,5.23
2018-10-02T17:08:33.015Z,5.20
2018-10-02T17:11:07.634Z,5.40
2018-10-02T17:13:48.260Z,5.27
2018-10-02T17:16:22.746Z,5.03
2018-10-02T17:18:57.505Z,5.20
2018-10-02T17:21:32.340Z,5.40
2018-10-02T17:24:06.678Z,5.87
2018-10-02T17:26:41.220Z,5.17
2018-10-02T17:29:16.079Z,5.87
2018-10-02T17:31:50.628Z,5.77
2018-10-02T17:34:25.591Z,5.70
2018-10-02T17:37:00.532Z,5.60
2018-10-02T17:39:53.618Z,5.33
2018-10-02T17:42:28.081Z,5.70
2018-10-02T17:45:02.776Z,5.80
2018-10-02T17:47:41.604Z,5.57
2018-10-02T17:50:17.329Z,5.87
2018-10-02T17:52:51.792Z,6.10
2018-10-02T17:55:27.885Z,5.97
2018-10-02T17:58:02.344Z,5.63
2018-10-02T18:00:37.750Z,6.00
2018-10-02T18:03:12.213Z,5.33
2018-10-02T18:05:49.342Z,5.97
2018-10-02T18:08:23.775Z,5.10
2018-10-02T18:10:58.840Z,5.60
2018-10-02T18:13:43.472Z,5.53
2018-10-02T18:16:19.084Z,6.13
2018-10-02T18:18:53.677Z,5.00
2018-10-02T18:21:31.715Z,5.70
2018-10-02T18:24:07.734Z,5.40
2018-10-02T18:26:42.565Z,5.83
2018-10-02T18:29:17.588Z,5.67
2018-10-02T18:31:52.552Z,5.30
2018-10-02T18:34:27.429Z,5.60
2018-10-02T18:37:03.474Z,5.20
2018-10-02T18:39:38.760Z,5.60
2018-10-02T18:42:13.233Z,4.83
2018-10-02T18:44:48.525Z,4.80
2018-10-02T18:47:23.110Z,5.07
2018-10-02T18:49:58.419Z,5.10
2018-10-02T18:52:32.820Z,5.10
2018-10-02T18:55:08.404Z,4.80
2018-10-02T18:57:43.008Z,4.70
2018-10-02T19:00:18.364Z,5.00
2018-10-02T19:02:59.672Z,4.23
2018-10-02T19:05:34.461Z,4.33
2018-10-02T19:08:09.005Z,4.70
2018-10-02T19:10:43.947Z,4.87
2018-10-02T19:13:18.373Z,4.60
2018-10-02T19:15:58.977Z,4.40
2018-10-02T19:18:33.868Z,4.30
2018-10-02T19:21:09.199Z,4.73
2018-10-02T19:23:43.535Z,4.43
2018-10-02T19:26:22.024Z,4.73
2018-10-02T19:28:56.803Z,4.70
2018-10-02T19:31:37.053Z,4.00
2018-10-02T19:34:11.705Z,3.90
2018-10-02T19:36:46.311Z,3.63
2018-10-02T19:39:32.169Z,4.00
2018-10-02T19:42:06.976Z,3.77
2018-10-02T19:44:41.276Z,3.27
2018-10-02T19:47:16.224Z,3.20
2018-10-02T19:49:51.336Z,3.17
2018-10-02T19:52:26.204Z,3.40
2018-10-02T19:55:01.311Z,3.37
2018-10-02T19:57:40.236Z,3.33
2018-10-02T20:00:14.746Z,3.10
2018-10-02T20:02:49.355Z,3.17
2018-10-02T20:05:23.816Z,3.37
2018-10-02T20:07:58.243Z,3.20
2018-10-02T20:10:32.959Z,3.40
2018-10-02T20:13:07.539Z,3.40
2018-10-02T20:15:42.869Z,3.10
2018-10-02T20:18:17.255Z,3.30
2018-10-02T20:20:51.967Z,3.60
2018-10-02T20:23:26.513Z,3.60
2018-10-02T20:26:01.552Z,3.77
2018-10-02T20:34:36.196Z,3.70
2018-10-02T20:37:10.629Z,3.40
2018-10-02T20:39:45.101Z,3.57
2018-10-02T20:42:19.460Z,3.60
2018-10-02T20:44:53.992Z,3.60
2018-10-02T20:47:30.678Z,3.67
2018-10-02T20:50:05.691Z,3.80
2018-10-02T20:52:40.100Z,3.80
2018-10-02T20:55:14.533Z,3.60
2018-10-02T20:57:59.200Z,3.40
2018-10-02T21:00:34.133Z,3.50
2018-10-02T21:03:08.670Z,3.73
2018-10-02T21:05:43.496Z,3.40
2018-10-02T21:08:25.571Z,3.23
2018-10-02T21:11:00.155Z,3.80
2018-10-02T21:13:34.978Z,3.67
2018-10-02T21:16:09.477Z,3.50
2018-10-02T21:18:43.824Z,3.60
2018-10-02T21:21:18.316Z,3.57
2018-10-02T21:23:52.784Z,3.47
2018-10-02T21:26:27.527Z,3.47
2018-10-02T21:29:02.473Z,3.80
2018-10-02T21:31:37.786Z,3.40
2018-10-02T21:34:12.652Z,3.63
2018-10-02T21:36:47.236Z,3.50
2018-10-02T21:39:21.699Z,3.83
2018-10-02T21:42:03.920Z,3.87
2018-10-02T21:44:38.311Z,3.70
2018-10-02T21:47:13.276Z,4.10
2018-10-02T21:49:47.863Z,3.83
2018-10-02T21:52:22.642Z,3.83
2018-10-02T21:54:57.110Z,3.60
2018-10-02T21:57:31.416Z,4.10
2018-10-02T22:00:06.914Z,3.63
2018-10-02T22:02:41.561Z,3.60
2018-10-02T22:05:16.370Z,4.07
2018-10-02T22:07:50.883Z,3.90
2018-10-02T22:10:26.089Z,3.83
2018-10-02T22:13:00.778Z,4.20
2018-10-02T22:15:35.987Z,4.23
2018-10-02T22:18:11.091Z,4.33
2018-10-02T22:20:45.851Z,4.33
2018-10-02T22:23:20.427Z,4.33
2018-10-02T22:25:55.305Z,4.13
2018-10-02T22:28:29.663Z,3.90
2018-10-02T22:31:04.664Z,4.17
2018-10-02T22:33:40.074Z,4.60
2018-10-02T22:36:14.828Z,4.73
2018-10-02T22:38:49.340Z,4.53
2018-10-02T22:41:23.676Z,5.57
2018-10-02T22:43:58.168Z,4.90
2018-10-02T22:46:32.907Z,5.00
2018-10-02T22:49:07.623Z,5.20
2018-10-02T22:51:42.360Z,4.70
2018-10-02T22:54:16.938Z,5.10
2018-10-02T22:56:51.485Z,5.33
2018-10-02T22:59:25.987Z,4.90
2018-10-02T23:02:00.260Z,4.73
2018-10-02T23:04:34.724Z,5.07
2018-10-02T23:07:09.568Z,5.20
2018-10-02T23:09:44.264Z,5.10
2018-10-02T23:12:19.355Z,5.30
2018-10-02T23:14:53.695Z,5.27
2018-10-02T23:17:28.383Z,5.40
2018-10-02T23:20:03.100Z,5.27
2018-10-02T23:22:37.559Z,5.00
2018-10-02T23:25:12.099Z,5.60
2018-10-02T23:27:46.704Z,5.07
2018-10-02T23:30:21.776Z,5.00
2018-10-02T23:32:56.564Z,5.40
2018-10-02T23:35:31.856Z,5.20
2018-10-02T23:38:06.348Z,4.90
2018-10-02T23:40:40.725Z,5.47
2018-10-02T23:43:15.239Z,4.93
2018-10-02T23:45:49.764Z,5.10
2018-10-02T23:48:24.183Z,4.80
2018-10-02T23:50:58.688Z,4.73
2018-10-02T23:53:33.779Z,4.80
2018-10-02T23:56:08.435Z,5.30
2018-10-02T23:58:43.162Z,4.70
